Time;durP1;ratioP1;P1;durP2;ratioP2;P2;SDS_P1;SDS_P2;PMS_P1;PMS_P2;Temp;Humidity;BMP_temperature;BMP_pressure;BME280_temperature;BME280_humidity;BME280_pressure;Samples;Min_cycle;Max_cycle;Signal;HPM_P1;HPM_P2
2021/07/29 00:02:01;;;;;;;7.38;3.70;;;;;;;14.84;100.00;100714.84;3604836;39;20031;-59
2021/07/29 00:04:29;;;;;;;5.90;3.50;;;;;;;14.81;100.00;100708.91;3605172;39;20142;-60
2021/07/29 00:06:56;;;;;;;6.38;3.50;;;;;;;14.78;100.00;100720.06;3604782;39;20168;-59
2021/07/29 00:09:22;;;;;;;8.30;3.30;;;;;;;14.72;100.00;100713.44;3604085;39;20039;-59
2021/07/29 00:11:48;;;;;;;7.57;3.78;;;;;;;14.69;100.00;100720.06;3602211;39;20034;-60
2021/07/29 00:14:15;;;;;;;7.03;3.70;;;;;;;14.79;100.00;100709.06;3601767;39;20116;-59
2021/07/29 00:16:44;;;;;;;8.18;3.58;;;;;;;14.80;100.00;100708.06;3601963;39;20035;-60
2021/07/29 00:19:10;;;;;;;7.43;3.35;;;;;;;14.85;100.00;100721.09;3601236;39;20024;-60
2021/07/29 00:21:39;;;;;;;8.27;3.78;;;;;;;14.90;100.00;100713.31;3605042;39;20028;-59
2021/07/29 00:24:06;;;;;;;6.95;3.05;;;;;;;14.88;100.00;100716.22;3604978;39;20071;-59
2021/07/29 00:26:33;;;;;;;7.80;3.20;;;;;;;14.82;100.00;100710.59;3603594;39;20032;-60
2021/07/29 00:29:01;;;;;;;7.38;3.28;;;;;;;14.79;100.00;100716.34;3600928;39;20038;-59
2021/07/29 00:31:30;;;;;;;6.18;3.78;;;;;;;14.78;100.00;100701.97;3592181;39;20057;-59
2021/07/29 00:33:57;;;;;;;12.13;3.90;;;;;;;14.75;100.00;100706.88;3591450;40;20113;-60
2021/07/29 00:36:24;;;;;;;8.70;3.40;;;;;;;14.78;100.00;100722.78;3593689;40;20044;-59
2021/07/29 00:38:52;;;;;;;11.43;3.72;;;;;;;14.85;100.00;100708.38;3595565;40;20030;-59
2021/07/29 00:41:19;;;;;;;6.13;2.92;;;;;;;14.89;100.00;100717.03;3589144;40;20045;-59
2021/07/29 00:43:45;;;;;;;7.63;2.90;;;;;;;14.92;100.00;100732.97;3591631;40;20044;-59
2021/07/29 00:46:14;;;;;;;10.95;3.90;;;;;;;14.53;100.00;100738.94;3591393;40;20043;-62
2021/07/29 00:48:41;;;;;;;7.90;3.47;;;;;;;14.28;100.00;100729.91;3590236;40;20032;-61
2021/07/29 00:54:01;;;;;;;6.15;3.33;;;;;;;14.04;100.00;100739.59;3609557;22;20061;-61
2021/07/29 00:56:29;;;;;;;;;;;;;;;13.95;100.00;100746.00;3585912;40;20048;-60
2021/07/29 00:58:55;;;;;;;8.73;3.70;;;;;;;13.96;100.00;100748.53;3585195;40;20348;-60
2021/07/29 01:01:22;;;;;;;7.88;3.65;;;;;;;13.90;100.00;100738.38;3582786;40;20033;-61
2021/07/29 01:03:50;;;;;;;8.82;3.42;;;;;;;13.85;100.00;100727.16;3581720;40;20060;-60
2021/07/29 01:06:16;;;;;;;7.47;3.47;;;;;;;13.81;100.00;100734.78;3579958;40;20028;-60
2021/07/29 01:09:08;;;;;;;8.95;3.60;;;;;;;13.73;100.00;100731.16;3584792;40;20044;-60
2021/07/29 01:11:35;;;;;;;11.57;3.25;;;;;;;13.72;100.00;100741.16;3584021;40;20029;-60
2021/07/29 01:14:01;;;;;;;9.18;3.50;;;;;;;13.69;100.00;100730.63;3581573;40;20037;-60
2021/07/29 01:16:28;;;;;;;7.75;3.00;;;;;;;13.63;100.00;100720.44;3580347;40;20048;-61
2021/07/29 01:18:55;;;;;;;11.88;3.30;;;;;;;13.54;100.00;100721.41;3584134;40;20052;-60
2021/07/29 01:21:25;;;;;;;7.55;2.97;;;;;;;13.48;100.00;100722.88;3582971;40;20033;-61
2021/07/29 01:23:52;;;;;;;7.32;2.83;;;;;;;13.43;100.00;100719.81;3583158;40;20032;-60
2021/07/29 01:26:18;;;;;;;6.97;2.88;;;;;;;13.44;100.00;100725.06;3582719;40;20041;-60
2021/07/29 01:28:45;;;;;;;7.82;3.00;;;;;;;13.41;100.00;100721.81;3580664;40;20475;-61
2021/07/29 01:31:11;;;;;;;9.23;2.60;;;;;;;13.39;100.00;100723.84;3585257;40;20027;-62
2021/07/29 01:33:38;;;;;;;6.90;2.65;;;;;;;13.30;100.00;100723.75;3583883;40;20030;-61
2021/07/29 01:36:05;;;;;;;9.25;3.20;;;;;;;13.27;100.00;100726.75;3584709;40;20059;-60
2021/07/29 01:38:33;;;;;;;9.88;3.17;;;;;;;13.24;100.00;100726.25;3583356;40;20374;-61
2021/07/29 01:41:01;;;;;;;7.55;2.90;;;;;;;13.19;100.00;100721.31;3582193;40;20044;-60
2021/07/29 01:43:28;;;;;;;6.68;3.10;;;;;;;13.17;100.00;100725.16;3582242;40;20100;-60
2021/07/29 01:45:55;;;;;;;6.80;3.25;;;;;;;13.18;100.00;100716.91;3579084;40;20044;-60
2021/07/29 01:48:21;;;;;;;11.43;3.33;;;;;;;13.17;100.00;100726.00;3581483;40;20068;-60
2021/07/29 01:50:48;;;;;;;8.88;3.72;;;;;;;13.18;100.00;100716.91;3581934;40;20040;-61
2021/07/29 01:53:14;;;;;;;9.00;3.35;;;;;;;13.24;100.00;100713.56;3590788;39;20064;-61
2021/07/29 01:55:42;;;;;;;9.63;3.50;;;;;;;13.25;100.00;100706.28;3594826;39;20093;-61
2021/07/29 01:58:09;;;;;;;12.80;3.33;;;;;;;13.35;100.00;100717.06;3592342;40;20045;-60
2021/07/29 02:00:37;;;;;;;12.18;4.15;;;;;;;13.37;100.00;100715.03;3593331;40;20295;-60
2021/07/29 02:03:03;;;;;;;13.52;4.10;;;;;;;13.46;100.00;100719.50;3593761;40;20024;-61
2021/07/29 02:05:30;;;;;;;11.05;4.20;;;;;;;13.49;100.00;100730.00;3593539;40;20044;-60
2021/07/29 02:07:56;;;;;;;13.13;3.58;;;;;;;13.58;100.00;100726.34;3594471;40;20031;-60
2021/07/29 02:10:23;;;;;;;12.07;3.85;;;;;;;13.64;100.00;100733.81;3590929;40;20092;-60
2021/07/29 02:12:51;;;;;;;12.10;4.32;;;;;;;13.74;100.00;100752.66;3590169;40;20394;-60
2021/07/29 02:15:18;;;;;;;9.68;3.97;;;;;;;13.81;100.00;100769.94;3592515;40;20031;-60
2021/07/29 02:17:45;;;;;;;18.05;4.45;;;;;;;13.80;100.00;100770.94;3592339;40;20045;-61
2021/07/29 02:20:12;;;;;;;11.85;4.50;;;;;;;13.62;100.00;100768.28;3591706;40;20045;-60
2021/07/29 02:22:39;;;;;;;11.75;4.13;;;;;;;13.53;100.00;100758.44;3591706;40;20048;-59
2021/07/29 02:25:07;;;;;;;9.77;4.28;;;;;;;13.51;100.00;100755.00;3593030;40;20045;-60
2021/07/29 02:27:34;;;;;;;15.70;4.70;;;;;;;13.48;100.00;100755.34;3592447;40;20121;-60
2021/07/29 02:30:02;;;;;;;13.80;4.68;;;;;;;13.46;100.00;100757.34;3591676;40;20110;-61
2021/07/29 02:32:28;;;;;;;8.75;3.85;;;;;;;13.41;100.00;100765.06;3591536;40;20375;-60
2021/07/29 02:34:55;;;;;;;12.50;3.60;;;;;;;13.26;100.00;100768.28;3591971;40;20075;-60
2021/07/29 02:37:22;;;;;;;9.02;3.55;;;;;;;13.18;100.00;100776.34;3590387;40;20059;-59
2021/07/29 02:39:49;;;;;;;13.38;3.40;;;;;;;13.14;100.00;100780.38;3592095;39;20318;-60
2021/07/29 02:42:15;;;;;;;7.38;3.17;;;;;;;13.07;100.00;100780.16;3590328;40;20332;-60
2021/07/29 02:44:43;;;;;;;7.78;3.28;;;;;;;13.10;100.00;100787.06;3592797;40;20047;-60
2021/07/29 02:47:47;;;;;;;15.40;4.05;;;;;;;13.10;100.00;100785.25;3621782;22;20051;-60
2021/07/29 02:50:15;;;;;;;7.65;3.90;;;;;;;13.10;100.00;100787.94;3552753;40;20046;-59
2021/07/29 02:52:42;;;;;;;12.15;4.13;;;;;;;13.10;100.00;100789.78;3558502;40;20042;-61
2021/07/29 02:55:09;;;;;;;9.05;4.60;;;;;;;13.13;100.00;100773.25;3556400;40;20308;-61
2021/07/29 02:57:36;;;;;;;12.25;5.50;;;;;;;13.13;100.00;100784.94;3556042;40;20062;-60
2021/07/29 03:00:03;;;;;;;13.52;6.15;;;;;;;13.13;100.00;100770.56;3556908;40;20030;-61
2021/07/29 03:02:29;;;;;;;13.80;5.80;;;;;;;13.13;100.00;100784.06;3555947;40;20064;-60
2021/07/29 03:04:56;;;;;;;16.67;6.53;;;;;;;13.13;100.00;100794.88;3556387;40;20445;-60
2021/07/29 03:07:23;;;;;;;16.27;6.20;;;;;;;13.15;100.00;100792.88;3555855;40;20096;-60
2021/07/29 03:09:50;;;;;;;17.00;6.50;;;;;;;13.21;100.00;100792.25;3558602;40;20127;-60
2021/07/29 03:12:16;;;;;;;22.25;6.55;;;;;;;13.21;100.00;100792.25;3556563;40;20052;-61
2021/07/29 03:14:44;;;;;;;14.73;5.85;;;;;;;13.18;100.00;100789.03;3556512;40;20030;-61
2021/07/29 03:17:11;;;;;;;14.18;5.95;;;;;;;13.14;100.00;100791.16;3556062;40;20042;-61
2021/07/29 03:19:37;;;;;;;16.95;5.68;;;;;;;13.10;100.00;100793.34;3556846;40;20048;-61
2021/07/29 03:22:04;;;;;;;12.50;5.82;;;;;;;13.06;100.00;100796.50;3556617;40;20034;-61
2021/07/29 03:24:32;;;;;;;13.55;5.53;;;;;;;13.05;100.00;100790.25;3558239;40;20112;-61
2021/07/29 03:26:59;;;;;;;14.75;5.50;;;;;;;13.00;100.00;100789.00;3556446;40;20042;-60
2021/07/29 03:29:27;;;;;;;15.45;5.35;;;;;;;12.97;100.00;100790.19;3557089;40;20278;-61
2021/07/29 03:31:54;;;;;;;19.27;5.78;;;;;;;12.95;100.00;100787.59;3556796;40;20128;-60
2021/07/29 03:34:20;;;;;;;12.00;5.70;;;;;;;12.92;100.00;100787.91;3555908;40;20041;-60
2021/07/29 03:36:47;;;;;;;17.25;6.00;;;;;;;12.86;100.00;100793.09;3556951;40;20289;-60
2021/07/29 03:39:13;;;;;;;15.27;6.35;;;;;;;12.78;100.00;100793.88;3555989;40;20088;-61
2021/07/29 03:41:41;;;;;;;17.02;6.13;;;;;;;12.81;100.00;100790.84;3554898;40;20038;-60
2021/07/29 03:44:07;;;;;;;13.43;6.03;;;;;;;12.74;100.00;100796.00;3554038;40;20360;-60
2021/07/29 03:49:00;;;;;;;15.48;6.95;;;;;;;12.65;100.00;100787.94;3638775;22;20467;-60
2021/07/29 03:51:27;;;;;;;15.32;6.43;;;;;;;12.66;100.00;100781.56;3576693;40;20036;-60
2021/07/29 03:53:53;;;;;;;15.38;6.80;;;;;;;12.61;100.00;100785.56;3579651;40;20041;-61
2021/07/29 03:56:20;;;;;;;14.35;6.45;;;;;;;12.60;100.00;100789.28;3577056;40;20037;-61
2021/07/29 03:58:47;;;;;;;20.45;6.70;;;;;;;12.62;100.00;100791.81;3576668;40;20044;-60
2021/07/29 04:01:14;;;;;;;15.20;5.95;;;;;;;12.61;100.00;100790.13;3578259;40;20033;-60
2021/07/29 04:03:40;;;;;;;23.50;7.20;;;;;;;12.60;100.00;100793.81;3580538;40;20106;-60
2021/07/29 04:06:07;;;;;;;19.25;7.05;;;;;;;12.63;100.00;100790.81;3580064;40;20304;-61
2021/07/29 04:08:33;;;;;;;17.65;7.22;;;;;;;12.66;100.00;100795.06;3571927;40;20037;-60
2021/07/29 04:10:59;;;;;;;14.52;6.75;;;;;;;12.65;100.00;100788.81;3581983;40;20039;-60
2021/07/29 04:13:26;;;;;;;12.68;6.70;;;;;;;12.70;100.00;100799.16;3578100;40;20044;-61
2021/07/29 04:16:00;;;;;;;18.27;7.45;;;;;;;12.70;100.00;100805.41;3580345;40;20102;-60
2021/07/29 04:18:26;;;;;;;20.70;7.65;;;;;;;12.70;100.00;100802.69;3573068;40;20069;-60
2021/07/29 04:20:53;;;;;;;21.17;7.40;;;;;;;12.73;100.00;100799.69;3576706;40;20045;-60
2021/07/29 04:25:48;;;;;;;18.35;6.70;;;;;;;12.82;100.00;100797.94;3609932;22;20134;-60
2021/07/29 04:28:14;;;;;;;17.67;7.05;;;;;;;12.85;100.00;100802.19;3580744;40;20405;-61
2021/07/29 04:30:41;;;;;;;19.30;7.13;;;;;;;12.88;100.00;100807.28;3583154;40;20036;-61
2021/07/29 04:33:09;;;;;;;19.27;6.40;;;;;;;12.99;100.00;100807.06;3584521;40;20063;-60
2021/07/29 04:35:36;;;;;;;17.50;6.25;;;;;;;13.03;100.00;100813.00;3582702;40;20047;-61
2021/07/29 04:38:02;;;;;;;15.43;6.32;;;;;;;12.99;100.00;100807.06;3583155;40;20039;-61
2021/07/29 04:40:29;;;;;;;14.82;6.68;;;;;;;12.96;100.00;100812.78;3583597;40;20042;-60
2021/07/29 04:42:55;;;;;;;15.38;6.28;;;;;;;13.00;100.00;100814.19;3581136;40;20033;-60
2021/07/29 04:45:21;;;;;;;12.93;6.65;;;;;;;13.01;100.00;100809.63;3582784;40;20405;-61
2021/07/29 04:47:48;;;;;;;16.85;6.07;;;;;;;12.99;100.00;100819.75;3581513;40;20037;-61
2021/07/29 04:50:16;;;;;;;16.13;6.28;;;;;;;13.06;100.00;100818.09;3583004;40;20041;-61
2021/07/29 04:52:42;;;;;;;14.13;5.32;;;;;;;13.06;100.00;100810.88;3581510;40;20037;-61
2021/07/29 04:55:09;;;;;;;16.05;6.50;;;;;;;13.10;100.00;100806.00;3581783;40;20029;-61
2021/07/29 04:57:36;;;;;;;17.77;6.25;;;;;;;13.08;100.00;100813.41;3579366;40;20029;-60
2021/07/29 05:00:03;;;;;;;17.13;5.90;;;;;;;13.15;100.00;100806.41;3581910;40;20048;-60
2021/07/29 05:02:29;;;;;;;18.83;6.95;;;;;;;13.17;100.00;100808.94;3584048;40;20060;-61
2021/07/29 05:04:55;;;;;;;18.35;7.13;;;;;;;13.18;100.00;100810.66;3579224;40;20039;-61
2021/07/29 05:07:23;;;;;;;16.50;6.53;;;;;;;13.23;100.00;100811.84;3580007;40;20039;-60
2021/07/29 05:09:50;;;;;;;17.65;6.93;;;;;;;13.26;100.00;100808.84;3575385;40;20388;-60
2021/07/29 05:12:16;;;;;;;15.50;6.75;;;;;;;13.36;100.00;100810.66;3582673;40;20029;-60
2021/07/29 05:14:43;;;;;;;16.40;6.75;;;;;;;13.40;100.00;100812.06;3586423;40;20035;-60
2021/07/29 05:17:09;;;;;;;21.40;6.97;;;;;;;13.40;100.00;100812.06;3580578;40;20388;-61
2021/07/29 05:19:35;;;;;;;18.23;7.15;;;;;;;13.37;100.00;100809.63;3585659;40;20294;-60
2021/07/29 05:22:02;;;;;;;12.40;6.05;;;;;;;13.51;100.00;100811.78;3581977;40;20028;-61
2021/07/29 05:24:30;;;;;;;18.08;6.70;;;;;;;13.52;100.00;100809.97;3584065;40;20056;-59
2021/07/29 05:26:57;;;;;;;16.08;6.20;;;;;;;13.59;100.00;100801.06;3583896;40;20039;-60
2021/07/29 05:29:23;;;;;;;21.52;6.40;;;;;;;13.62;100.00;100811.56;3582985;40;20041;-60
2021/07/29 05:31:50;;;;;;;15.30;5.93;;;;;;;13.67;100.00;100797.56;3583448;40;20033;-61
2021/07/29 05:34:16;;;;;;;15.45;5.70;;;;;;;13.73;100.00;100799.63;3577917;40;20033;-61
2021/07/29 05:36:43;;;;;;;20.48;6.53;;;;;;;13.81;100.00;100809.69;3579442;40;20088;-60
2021/07/29 05:39:09;;;;;;;22.75;5.53;;;;;;;13.93;100.00;100808.38;3585737;40;20051;-60
2021/07/29 05:41:37;;;;;;;16.20;5.40;;;;;;;14.08;100.00;100810.50;3581847;40;20047;-60
2021/07/29 05:44:03;;;;;;;15.18;5.68;;;;;;;14.21;100.00;100813.63;3575409;40;20036;-60
2021/07/29 05:46:30;;;;;;;16.33;5.63;;;;;;;14.34;100.00;100819.44;3580259;40;20037;-60
2021/07/29 05:48:56;;;;;;;22.25;5.32;;;;;;;14.31;100.00;100819.78;3581501;40;20043;-60
2021/07/29 05:51:23;;;;;;;23.40;6.75;;;;;;;14.11;100.00;100815.59;3580599;40;20043;-61
2021/07/29 05:53:49;;;;;;;19.65;6.00;;;;;;;14.03;100.00;100824.53;3583033;40;20048;-61
2021/07/29 05:56:16;;;;;;;14.40;5.82;;;;;;;13.98;100.00;100822.28;3579832;40;20379;-60
2021/07/29 05:58:43;;;;;;;22.98;6.80;;;;;;;13.89;100.00;100825.09;3582485;40;20041;-60
2021/07/29 06:01:10;;;;;;;17.65;5.60;;;;;;;13.85;100.00;100824.56;3581061;40;20045;-60
2021/07/29 06:03:36;;;;;;;17.33;6.40;;;;;;;13.85;100.00;100827.25;3577488;40;20370;-60
2021/07/29 06:06:03;;;;;;;18.88;6.15;;;;;;;14.01;100.00;100823.81;3585721;40;20058;-60
2021/07/29 06:08:29;;;;;;;20.13;6.90;;;;;;;14.20;100.00;100817.34;3583977;40;20365;-60
2021/07/29 06:10:55;;;;;;;19.50;5.55;;;;;;;14.36;100.00;100820.13;3562351;40;20149;-59
2021/07/29 06:13:22;;;;;;;18.33;5.65;;;;;;;14.30;100.00;100825.34;3577781;40;20067;-60
2021/07/29 06:15:50;;;;;;;20.23;5.90;;;;;;;14.26;100.00;100823.97;3580535;40;20033;-60
2021/07/29 06:18:16;;;;;;;19.77;5.82;;;;;;;14.41;100.00;100835.88;3580337;40;20031;-60
2021/07/29 06:20:42;;;;;;;16.77;4.97;;;;;;;14.45;100.00;100826.44;3580610;40;20072;-60
2021/07/29 06:23:09;;;;;;;17.85;5.85;;;;;;;14.53;100.00;100829.19;3586551;40;20039;-61
2021/07/29 06:25:35;;;;;;;14.30;5.43;;;;;;;14.70;100.00;100821.97;3580940;40;20052;-61
2021/07/29 06:31:21;;;;;;;20.90;5.10;;;;;;;14.62;100.00;100824.69;3620399;22;20132;-60
2021/07/29 06:33:48;;;;;;;15.63;5.00;;;;;;;14.74;100.00;100822.53;3604134;39;20279;-60
2021/07/29 06:36:14;;;;;;;15.85;4.25;;;;;;;14.91;100.00;100823.41;3604895;39;20052;-60
2021/07/29 06:38:41;;;;;;;12.65;4.20;;;;;;;14.94;100.00;100825.78;3603616;39;20034;-60
2021/07/29 06:41:07;;;;;;;11.25;4.65;;;;;;;15.01;100.00;100828.69;3597475;39;20065;-61
2021/07/29 06:43:34;;;;;;;13.52;4.50;;;;;;;15.04;100.00;100834.59;3598883;39;20040;-61
2021/07/29 06:46:04;;;;;;;14.65;3.88;;;;;;;14.97;100.00;100833.59;3598807;39;20367;-61
2021/07/29 06:48:32;;;;;;;11.38;3.70;;;;;;;14.87;100.00;100841.03;3585949;39;20040;-61
2021/07/29 06:51:02;;;;;;;12.23;4.00;;;;;;;14.85;100.00;100846.59;3600175;39;20049;-61
2021/07/29 06:53:29;;;;;;;15.20;3.88;;;;;;;15.02;100.00;100852.91;3599768;39;20028;-60
2021/07/29 06:55:57;;;;;;;13.48;4.18;;;;;;;15.10;100.00;100851.25;3604430;39;20375;-60
2021/07/29 06:58:23;;;;;;;14.10;3.95;;;;;;;15.07;100.00;100838.84;3600390;39;20044;-60
2021/07/29 07:00:50;;;;;;;12.32;3.90;;;;;;;15.30;100.00;100836.38;3603105;39;20390;-61
2021/07/29 07:03:16;;;;;;;16.10;4.18;;;;;;;15.33;100.00;100822.47;3601771;39;20043;-60
2021/07/29 07:05:46;;;;;;;19.15;4.32;;;;;;;15.41;100.00;100840.59;3603629;39;20054;-60
2021/07/29 07:08:13;;;;;;;15.98;4.25;;;;;;;15.52;100.00;100847.56;3599958;39;20047;-60
2021/07/29 07:10:39;;;;;;;16.42;3.80;;;;;;;15.56;100.00;100846.19;3601118;39;20031;-60
2021/07/29 07:13:06;;;;;;;15.07;5.05;;;;;;;15.76;100.00;100839.41;3604875;39;20036;-60
2021/07/29 07:15:32;;;;;;;15.18;3.95;;;;;;;15.91;100.00;100836.03;3603692;39;20036;-60
2021/07/29 07:17:59;;;;;;;17.40;4.93;;;;;;;16.15;100.00;100834.28;3602304;39;20040;-60
2021/07/29 07:20:25;;;;;;;13.35;4.55;;;;;;;16.30;100.00;100832.56;3595910;39;20140;-62
2021/07/29 07:22:54;;;;;;;12.20;3.88;;;;;;;16.26;100.00;100821.19;3603034;39;20034;-60
2021/07/29 07:25:20;;;;;;;12.75;4.22;;;;;;;16.17;100.00;100832.28;3601487;39;20051;-61
2021/07/29 07:27:47;;;;;;;10.90;4.30;;;;;;;16.21;100.00;100837.19;3599929;39;20315;-60
2021/07/29 07:30:14;;;;;;;18.08;4.38;;;;;;;16.45;100.00;100854.41;3601225;39;20261;-61
2021/07/29 07:32:41;;;;;;;15.38;4.22;;;;;;;16.72;100.00;100850.41;3602040;39;20024;-61
2021/07/29 07:35:08;;;;;;;13.60;3.55;;;;;;;16.37;100.00;100835.41;3600790;39;20029;-60
2021/07/29 07:37:34;;;;;;;14.80;3.90;;;;;;;16.19;100.00;100841.09;3604065;39;20044;-61
2021/07/29 07:40:03;;;;;;;12.70;4.30;;;;;;;16.52;100.00;100841.84;3599701;39;20062;-60
2021/07/29 07:42:29;;;;;;;11.67;4.40;;;;;;;16.60;100.00;100835.50;3601560;39;20093;-61
2021/07/29 07:44:56;;;;;;;8.82;3.70;;;;;;;16.74;100.00;100836.63;3607769;39;20038;-61
2021/07/29 07:47:22;;;;;;;12.95;4.10;;;;;;;16.60;100.00;100849.09;3602776;39;20059;-60
2021/07/29 07:49:49;;;;;;;14.00;4.28;;;;;;;16.45;100.00;100838.97;3601227;39;20034;-60
2021/07/29 07:52:15;;;;;;;15.15;3.72;;;;;;;16.53;100.00;100848.09;3602717;39;20035;-60
2021/07/29 07:54:42;;;;;;;13.13;3.90;;;;;;;16.60;100.00;100846.38;3602994;39;20036;-61
2021/07/29 07:57:41;;;;;;;10.38;3.75;;;;;;;17.05;100.00;100855.72;3634693;22;20047;-61
2021/07/29 08:00:11;;;;;;;18.65;4.30;;;;;;;16.58;100.00;100848.44;3587505;39;20053;-61
2021/07/29 08:02:37;;;;;;;11.48;3.60;;;;;;;16.36;100.00;100850.06;3593000;39;20040;-59
2021/07/29 08:07:57;;;;;;;12.07;3.80;;;;;;;16.81;100.00;100854.78;3634175;22;20098;-60
2021/07/29 08:10:23;;;;;;;11.35;3.78;;;;;;;17.26;100.00;100843.34;3608163;39;20044;-59
2021/07/29 08:12:50;;;;;;;13.88;3.58;;;;;;;17.78;100.00;100850.75;3608778;39;20051;-61
2021/07/29 08:15:18;;;;;;;10.07;3.08;;;;;;;17.80;100.00;100854.16;3608355;39;20037;-61
2021/07/29 08:17:44;;;;;;;10.15;3.45;;;;;;;17.49;100.00;100838.75;3608530;39;20104;-61
2021/07/29 08:20:11;;;;;;;11.57;2.85;;;;;;;17.62;100.00;100840.88;3608341;39;20052;-61
2021/07/29 08:22:37;;;;;;;10.65;3.08;;;;;;;17.86;100.00;100838.94;3608751;39;20058;-61
2021/07/29 08:25:05;;;;;;;12.73;3.45;;;;;;;17.88;100.00;100841.50;3608716;39;20030;-61
2021/07/29 08:27:34;;;;;;;12.05;3.13;;;;;;;18.08;100.00;100839.09;3608696;39;20072;-61
2021/07/29 08:30:00;;;;;;;10.73;2.70;;;;;;;18.21;100.00;100852.91;3607877;39;20430;-60
2021/07/29 08:32:28;;;;;;;12.32;3.30;;;;;;;18.27;100.00;100841.28;3608483;39;20050;-61
2021/07/29 08:34:55;;;;;;;8.93;2.92;;;;;;;17.87;100.00;100837.91;3608455;39;20122;-61
2021/07/29 08:37:21;;;;;;;5.75;2.50;;;;;;;17.94;100.00;100838.06;3609033;39;20054;-62
2021/07/29 08:39:48;;;;;;;13.05;2.97;;;;;;;17.92;100.00;100832.78;3607529;39;20047;-60
2021/07/29 08:42:14;;;;;;;8.95;3.00;;;;;;;18.01;100.00;100841.72;3608063;39;20039;-61
2021/07/29 08:44:41;;;;;;;7.28;2.47;;;;;;;18.16;100.00;100842.56;3608390;39;20030;-61
2021/07/29 08:47:09;;;;;;;10.63;2.80;;;;;;;18.12;100.00;100840.41;3607378;39;20042;-61
2021/07/29 08:49:39;;;;;;;12.82;3.03;;;;;;;18.64;100.00;100844.94;3604910;39;20027;-60
2021/07/29 08:52:07;;;;;;;10.00;3.13;;;;;;;18.64;100.00;100847.66;3608705;39;20028;-61
2021/07/29 08:54:33;;;;;;;10.32;2.88;;;;;;;18.11;100.00;100844.16;3607677;39;20120;-62
2021/07/29 08:57:00;;;;;;;9.13;2.60;;;;;;;17.99;100.00;100854.66;3608175;39;20269;-61
2021/07/29 08:59:26;;;;;;;5.82;2.42;;;;;;;17.98;100.00;100856.56;3605502;39;20030;-62
2021/07/29 09:01:53;;;;;;;5.50;2.25;;;;;;;18.05;100.00;100856.69;3608484;39;20034;-61
2021/07/29 09:04:20;;;;;;;7.10;2.28;;;;;;;17.59;100.00;100852.09;3606673;39;20290;-61
2021/07/29 09:06:57;;;;;;;5.55;2.15;;;;;;;17.66;100.00;100863.09;3607237;39;20035;-61
2021/07/29 09:09:45;;;;;;;6.78;2.33;;;;;;;18.00;100.00;100861.81;3604972;39;20046;-61
2021/07/29 09:12:17;;;;;;;11.35;2.20;;;;;;;18.54;100.00;100858.84;3607166;39;20084;-60
2021/07/29 09:14:44;;;;;;;13.50;2.60;;;;;;;19.14;100.00;100866.97;3608219;39;20039;-62
2021/07/29 09:17:12;;;;;;;7.03;2.40;;;;;;;19.24;100.00;100866.66;3608261;39;20042;-61
2021/07/29 09:19:41;;;;;;;8.50;2.22;;;;;;;19.05;100.00;100874.44;3639852;22;20106;-61
2021/07/29 09:25:24;;;;;;;5.65;1.83;;;;;;;18.83;100.00;100867.19;3593920;22;1056611;-61
2021/07/29 09:27:51;;;;;;;6.53;1.88;;;;;;;19.04;100.00;100874.63;3604325;39;20337;-61
2021/07/29 09:30:21;;;;;;;8.43;2.40;;;;;;;19.26;100.00;100878.22;3604824;39;20116;-60
2021/07/29 09:32:54;;;;;;;;;;;;;;;19.02;100.00;100888.44;3607742;39;20031;-61
2021/07/29 09:35:34;;;;;;;6.40;2.15;;;;;;;19.20;100.00;100887.19;3605940;39;19944;-61
2021/07/29 09:38:01;;;;;;;10.65;2.17;;;;;;;19.44;100.00;100881.34;3605963;39;20289;-62
2021/07/29 09:40:42;;;;;;;6.72;2.13;;;;;;;19.83;100.00;100892.91;3598134;39;20054;-61
2021/07/29 09:43:10;;;;;;;8.65;2.33;;;;;;;19.93;100.00;100890.69;3601757;39;20035;-61
2021/07/29 09:45:36;;;;;;;10.90;2.50;;;;;;;19.65;100.00;100903.41;3601391;39;20035;-61
2021/07/29 09:48:06;;;;;;;6.47;2.63;;;;;;;19.55;100.00;100890.94;3604071;39;20328;-62
2021/07/29 09:50:33;;;;;;;7.38;2.22;;;;;;;19.61;100.00;100898.34;3602032;39;20278;-61
2021/07/29 09:53:00;;;;;;;7.97;2.70;;;;;;;18.82;100.00;100901.78;3603691;39;20035;-60
2021/07/29 10:01:19;;;;;;;6.60;2.10;;;;;;;19.29;100.00;100901.53;3533049;22;20076;-61
2021/07/29 10:03:49;;;;;;;8.60;2.08;;;;;;;19.40;100.00;100901.03;3590066;40;20040;-61
2021/07/29 10:06:18;;;;;;;5.15;2.15;;;;;;;19.26;100.00;100891.88;3583926;40;20043;-61
2021/07/29 10:08:51;;;;;;;7.63;2.50;;;;;;;19.72;100.00;100907.88;3588275;40;20490;-61
2021/07/29 10:11:20;;;;;;;8.10;2.60;;;;;;;19.93;100.00;100901.59;3589125;40;20045;-61
2021/07/29 10:13:46;;;;;;;14.07;2.45;;;;;;;19.83;100.00;100894.75;3589540;40;20036;-62
2021/07/29 10:16:17;;;;;;;8.85;1.90;;;;;;;20.35;100.00;100903.59;3588349;40;20036;-62
2021/07/29 10:19:07;;;;;;;6.03;2.08;;;;;;;20.30;100.00;100893.25;3589999;40;20032;-61
2021/07/29 10:21:38;;;;;;;5.30;2.00;;;;;;;20.59;100.00;100883.97;3589230;40;20044;-62
2021/07/29 10:24:05;;;;;;;7.82;2.03;;;;;;;20.26;100.00;100892.81;3585603;40;20037;-60
2021/07/29 10:26:34;;;;;;;5.18;1.80;;;;;;;20.52;100.00;100891.28;3591349;40;20043;-62
2021/07/29 10:29:22;;;;;;;8.68;1.90;;;;;;;20.20;100.00;100892.75;3587560;40;20389;-61
2021/07/29 10:31:51;;;;;;;5.85;2.08;;;;;;;20.17;100.00;100885.81;3591054;40;20279;-61
2021/07/29 10:34:27;;;;;;;3.33;1.60;;;;;;;20.45;100.00;100896.72;3586494;40;20039;-60
2021/07/29 10:36:54;;;;;;;5.22;1.77;;;;;;;20.87;100.00;100887.72;3588535;40;20060;-61
2021/07/29 10:39:21;;;;;;;5.07;1.50;;;;;;;20.80;100.00;100894.00;3584259;40;20110;-61
2021/07/29 10:41:56;;;;;;;4.43;1.52;;;;;;;20.84;100.00;100899.91;3588611;40;20043;-61
2021/07/29 10:44:46;;;;;;;8.98;1.80;;;;;;;21.23;100.00;100898.41;3587763;40;20354;-63
2021/07/29 10:47:17;;;;;;;6.10;1.40;;;;;;;21.22;96.01;100891.22;3585877;40;20340;-61
2021/07/29 10:50:19;;;;;;;3.75;1.60;;;;;;;20.73;100.00;100893.13;3579898;40;20024;-60
2021/07/29 10:52:55;;;;;;;4.13;1.50;;;;;;;21.17;99.08;100904.66;3578228;40;20178;-61
2021/07/29 10:55:22;;;;;;;4.80;1.70;;;;;;;21.12;100.00;100907.19;3568741;40;20366;-60
2021/07/29 10:58:06;;;;;;;10.23;1.73;;;;;;;20.61;100.00;100903.78;3650880;22;20764;-60
2021/07/29 11:00:33;;;;;;;6.38;1.42;;;;;;;20.54;100.00;100902.88;3591230;40;20110;-61
2021/07/29 11:03:07;;;;;;;6.93;1.90;;;;;;;20.97;100.00;100908.19;3591958;40;20046;-60
2021/07/29 11:05:43;;;;;;;4.95;1.50;;;;;;;20.98;91.41;100909.88;3595912;40;20036;-60
2021/07/29 11:08:11;;;;;;;6.07;1.52;;;;;;;21.03;100.00;100916.63;3594371;40;20043;-60
2021/07/29 11:10:38;;;;;;;6.03;1.90;;;;;;;21.37;92.73;100909.38;3595111;40;20048;-61
2021/07/29 11:13:06;;;;;;;4.00;1.40;;;;;;;21.56;100.00;100905.88;3596603;40;20036;-60
2021/07/29 11:15:37;;;;;;;3.30;1.42;;;;;;;21.72;91.64;100895.59;3594214;40;20299;-61
2021/07/29 11:18:17;;;;;;;6.55;1.70;;;;;;;22.11;100.00;100907.59;3591017;40;20070;-60
2021/07/29 11:20:44;;;;;;;3.80;1.70;;;;;;;21.56;95.06;100903.13;3596868;40;20117;-61
2021/07/29 11:23:17;;;;;;;7.38;1.73;;;;;;;21.48;94.53;100901.41;3595573;40;20030;-59
2021/07/29 11:26:01;;;;;;;5.47;1.58;;;;;;;21.68;94.66;100908.84;3594458;40;20029;-60
2021/07/29 11:28:27;;;;;;;5.03;1.60;;;;;;;20.63;79.69;100909.88;3587529;40;20048;-60
2021/07/29 11:30:54;;;;;;;3.65;1.45;;;;;;;20.26;94.46;100909.22;3595620;40;20060;-61
2021/07/29 11:33:22;;;;;;;6.10;1.40;;;;;;;20.08;100.00;100912.44;3595706;40;20039;-60
2021/07/29 11:35:50;;;;;;;7.32;1.75;;;;;;;20.02;100.00;100917.84;3595352;40;20024;-61
2021/07/29 11:38:18;;;;;;;4.78;1.50;;;;;;;19.56;90.46;100925.34;3590949;40;20064;-60
2021/07/29 11:40:45;;;;;;;7.60;1.92;;;;;;;19.50;99.61;100920.69;3596785;40;20036;-61
2021/07/29 11:43:21;;;;;;;4.53;1.55;;;;;;;20.30;100.00;100909.66;3597297;40;20075;-61